sensor_id;sensor_type;location;lat;lon;timestamp;pressure;altitude;pressure_sealevel;temperature;humidity
57248;BME280;55809;46.618;10.764;2024-02-21T00:01:51;93880.59;;;5.07;100.00
57248;BME280;55809;46.618;10.764;2024-02-21T00:04:18;93876.88;;;5.11;100.00
57248;BME280;55809;46.618;10.764;2024-02-21T00:06:45;93871.88;;;5.10;100.00
57248;BME280;55809;46.618;10.764;2024-02-21T00:09:12;93796.41;;;4.48;100.00
57248;BME280;55809;46.618;10.764;2024-02-21T00:11:39;93875.56;;;5.05;100.00
57248;BME280;55809;46.618;10.764;2024-02-21T00:14:07;93881.38;;;5.07;100.00
57248;BME280;55809;46.618;10.764;2024-02-21T00:16:34;93872.66;;;5.10;100.00
57248;BME280;55809;46.618;10.764;2024-02-21T00:19:01;93875.69;;;4.97;100.00
57248;BME280;55809;46.618;10.764;2024-02-21T00:21:29;93888.56;;;4.91;100.00
57248;BME280;55809;46.618;10.764;2024-02-21T00:23:56;93884.78;;;4.80;100.00
57248;BME280;55809;46.618;10.764;2024-02-21T00:26:23;93873.75;;;4.81;100.00
57248;BME280;55809;46.618;10.764;2024-02-21T00:28:51;93872.78;;;4.61;100.00
57248;BME280;55809;46.618;10.764;2024-02-21T00:31:19;93875.03;;;4.47;100.00
57248;BME280;55809;46.618;10.764;2024-02-21T00:33:46;93879.47;;;4.55;100.00
57248;BME280;55809;46.618;10.764;2024-02-21T00:36:13;93872.44;;;4.63;100.00
57248;BME280;55809;46.618;10.764;2024-02-21T00:38:40;93867.53;;;4.65;100.00
57248;BME280;55809;46.618;10.764;2024-02-21T00:41:07;93876.13;;;4.70;100.00
57248;BME280;55809;46.618;10.764;2024-02-21T00:43:34;93884.09;;;4.83;100.00
57248;BME280;55809;46.618;10.764;2024-02-21T00:46:01;93866.31;;;4.75;100.00
57248;BME280;55809;46.618;10.764;2024-02-21T00:48:30;93876.47;;;4.57;100.00
57248;BME280;55809;46.618;10.764;2024-02-21T00:50:57;93878.81;;;4.46;100.00
57248;BME280;55809;46.618;10.764;2024-02-21T00:53:24;93883.75;;;4.32;100.00
57248;BME280;55809;46.618;10.764;2024-02-21T00:55:50;93885.75;;;4.35;100.00
57248;BME280;55809;46.618;10.764;2024-02-21T00:58:17;93882.50;;;4.41;100.00
57248;BME280;55809;46.618;10.764;2024-02-21T01:00:44;93879.50;;;4.43;100.00
57248;BME280;55809;46.618;10.764;2024-02-21T01:03:11;93872.13;;;4.40;100.00
57248;BME280;55809;46.618;10.764;2024-02-21T01:05:40;93874.91;;;4.43;100.00
57248;BME280;55809;46.618;10.764;2024-02-21T01:08:07;93871.91;;;4.45;100.00
57248;BME280;55809;46.618;10.764;2024-02-21T01:10:34;93804.03;;;4.09;100.00
57248;BME280;55809;46.618;10.764;2024-02-21T01:13:01;93799.00;;;4.08;100.00
57248;BME280;55809;46.618;10.764;2024-02-21T01:15:28;93864.13;;;4.52;100.00
57248;BME280;55809;46.618;10.764;2024-02-21T01:17:55;93860.78;;;4.31;100.00
57248;BME280;55809;46.618;10.764;2024-02-21T01:20:24;93851.34;;;4.09;100.00
57248;BME280;55809;46.618;10.764;2024-02-21T01:22:53;93864.47;;;4.14;100.00
57248;BME280;55809;46.618;10.764;2024-02-21T01:25:19;93854.81;;;4.21;100.00
57248;BME280;55809;46.618;10.764;2024-02-21T01:27:46;93854.91;;;4.25;100.00
57248;BME280;55809;46.618;10.764;2024-02-21T01:30:13;93858.91;;;4.31;100.00
57248;BME280;55809;46.618;10.764;2024-02-21T01:32:40;93858.47;;;4.41;100.00
57248;BME280;55809;46.618;10.764;2024-02-21T01:35:08;93857.34;;;4.42;100.00
57248;BME280;55809;46.618;10.764;2024-02-21T01:37:35;93847.88;;;4.45;100.00
57248;BME280;55809;46.618;10.764;2024-02-21T01:40:04;93843.97;;;4.42;100.00
57248;BME280;55809;46.618;10.764;2024-02-21T01:42:31;93840.22;;;4.31;100.00
57248;BME280;55809;46.618;10.764;2024-02-21T01:44:58;93836.06;;;4.34;100.00
57248;BME280;55809;46.618;10.764;2024-02-21T01:47:25;93837.84;;;4.30;100.00
57248;BME280;55809;46.618;10.764;2024-02-21T01:49:52;93841.53;;;4.13;100.00
57248;BME280;55809;46.618;10.764;2024-02-21T01:52:19;93836.09;;;4.09;100.00
57248;BME280;55809;46.618;10.764;2024-02-21T01:54:47;93832.75;;;4.00;100.00
57248;BME280;55809;46.618;10.764;2024-02-21T01:57:16;93836.09;;;4.09;100.00
57248;BME280;55809;46.618;10.764;2024-02-21T01:59:43;93833.97;;;4.15;100.00
57248;BME280;55809;46.618;10.764;2024-02-21T02:02:10;93827.41;;;4.12;100.00
57248;BME280;55809;46.618;10.764;2024-02-21T02:04:38;93829.53;;;4.07;100.00
57248;BME280;55809;46.618;10.764;2024-02-21T02:07:06;93826.75;;;4.15;100.00
57248;BME280;55809;46.618;10.764;2024-02-21T02:09:34;93826.28;;;4.13;100.00
57248;BME280;55809;46.618;10.764;2024-02-21T02:12:02;93817.84;;;3.99;100.00
57248;BME280;55809;46.618;10.764;2024-02-21T02:14:30;93821.59;;;3.98;100.00
57248;BME280;55809;46.618;10.764;2024-02-21T02:16:57;93813.06;;;3.92;100.00
57248;BME280;55809;46.618;10.764;2024-02-21T02:19:24;93824.41;;;3.77;100.00
57248;BME280;55809;46.618;10.764;2024-02-21T02:21:54;93825.97;;;3.66;100.00
57248;BME280;55809;46.618;10.764;2024-02-21T02:24:24;93809.13;;;3.41;100.00
57248;BME280;55809;46.618;10.764;2024-02-21T02:26:52;93823.28;;;3.66;100.00
57248;BME280;55809;46.618;10.764;2024-02-21T02:29:19;93826.97;;;3.73;100.00
57248;BME280;55809;46.618;10.764;2024-02-21T02:31:46;93815.63;;;3.76;100.00
57248;BME280;55809;46.618;10.764;2024-02-21T02:34:13;93794.13;;;3.61;100.00
57248;BME280;55809;46.618;10.764;2024-02-21T02:36:40;93820.38;;;3.71;100.00
57248;BME280;55809;46.618;10.764;2024-02-21T02:39:07;93819.97;;;3.69;100.00
57248;BME280;55809;46.618;10.764;2024-02-21T02:41:36;93817.06;;;3.74;100.00
57248;BME280;55809;46.618;10.764;2024-02-21T02:44:03;93723.94;;;3.11;100.00
57248;BME280;55809;46.618;10.764;2024-02-21T02:46:30;93822.63;;;3.81;100.00
57248;BME280;55809;46.618;10.764;2024-02-21T02:48:57;93824.41;;;3.77;100.00
57248;BME280;55809;46.618;10.764;2024-02-21T02:51:24;93824.19;;;3.82;100.00
57248;BME280;55809;46.618;10.764;2024-02-21T02:53:51;93823.84;;;3.84;100.00
57248;BME280;55809;46.618;10.764;2024-02-21T02:56:18;93804.91;;;3.64;100.00
57248;BME280;55809;46.618;10.764;2024-02-21T02:58:46;93825.19;;;3.90;100.00
57248;BME280;55809;46.618;10.764;2024-02-21T03:01:13;93820.50;;;3.74;100.00
57248;BME280;55809;46.618;10.764;2024-02-21T03:03:41;93816.25;;;3.61;100.00
57248;BME280;55809;46.618;10.764;2024-02-21T03:06:08;93819.75;;;3.16;100.00
57248;BME280;55809;46.618;10.764;2024-02-21T03:08:34;93820.16;;;3.06;100.00
57248;BME280;55809;46.618;10.764;2024-02-21T03:11:01;93820.16;;;3.06;100.00
57248;BME280;55809;46.618;10.764;2024-02-21T03:13:28;93810.56;;;3.26;100.00
57248;BME280;55809;46.618;10.764;2024-02-21T03:15:57;93806.69;;;3.36;100.00
57248;BME280;55809;46.618;10.764;2024-02-21T03:18:24;93806.91;;;3.43;100.00
57248;BME280;55809;46.618;10.764;2024-02-21T03:20:51;93816.34;;;3.40;100.00
57248;BME280;55809;46.618;10.764;2024-02-21T03:23:17;93817.34;;;3.36;100.00
57248;BME280;55809;46.618;10.764;2024-02-21T03:25:44;93794.09;;;3.24;100.00
57248;BME280;55809;46.618;10.764;2024-02-21T03:28:11;93822.69;;;3.36;100.00
57248;BME280;55809;46.618;10.764;2024-02-21T03:30:38;93821.22;;;3.38;100.00
57248;BME280;55809;46.618;10.764;2024-02-21T03:33:07;93821.34;;;3.42;100.00
57248;BME280;55809;46.618;10.764;2024-02-21T03:35:34;93821.69;;;3.40;100.00
57248;BME280;55809;46.618;10.764;2024-02-21T03:38:01;93812.56;;;3.41;100.00
57248;BME280;55809;46.618;10.764;2024-02-21T03:40:28;93811.13;;;3.44;100.00
57248;BME280;55809;46.618;10.764;2024-02-21T03:42:54;93811.00;;;3.40;100.00
57248;BME280;55809;46.618;10.764;2024-02-21T03:45:22;93810.41;;;3.22;100.00
57248;BME280;55809;46.618;10.764;2024-02-21T03:47:49;93809.53;;;3.31;100.00
57248;BME280;55809;46.618;10.764;2024-02-21T03:50:17;93801.75;;;3.25;100.00
57248;BME280;55809;46.618;10.764;2024-02-21T03:52:44;93810.31;;;3.31;100.00
57248;BME280;55809;46.618;10.764;2024-02-21T03:55:11;93809.06;;;3.16;100.00
57248;BME280;55809;46.618;10.764;2024-02-21T03:57:38;93809.06;;;3.16;100.00
57248;BME280;55809;46.618;10.764;2024-02-21T04:00:06;93811.00;;;2.95;100.00
57248;BME280;55809;46.618;10.764;2024-02-21T04:02:36;93818.16;;;3.03;100.00
57248;BME280;55809;46.618;10.764;2024-02-21T04:05:04;93739.09;;;2.53;100.00
57248;BME280;55809;46.618;10.764;2024-02-21T04:07:37;93818.72;;;3.09;100.00
57248;BME280;55809;46.618;10.764;2024-02-21T04:10:05;93817.69;;;3.01;100.00
57248;BME280;55809;46.618;10.764;2024-02-21T04:12:33;93814.78;;;2.94;100.00
57248;BME280;55809;46.618;10.764;2024-02-21T04:14:59;93761.34;;;2.57;100.00
57248;BME280;55809;46.618;10.764;2024-02-21T04:17:27;93822.50;;;3.08;100.00
57248;BME280;55809;46.618;10.764;2024-02-21T04:20:02;93816.84;;;3.21;100.00
57248;BME280;55809;46.618;10.764;2024-02-21T04:22:30;93819.44;;;3.30;100.00
57248;BME280;55809;46.618;10.764;2024-02-21T04:24:59;93820.13;;;3.39;100.00
57248;BME280;55809;46.618;10.764;2024-02-21T04:27:26;93810.66;;;3.42;100.00
57248;BME280;55809;46.618;10.764;2024-02-21T04:29:53;93812.56;;;3.41;100.00
57248;BME280;55809;46.618;10.764;2024-02-21T04:32:20;93786.97;;;3.28;100.00
57248;BME280;55809;46.618;10.764;2024-02-21T04:34:47;93801.78;;;3.38;100.00
57248;BME280;55809;46.618;10.764;2024-02-21T04:37:14;93781.28;;;3.17;100.00
57248;BME280;55809;46.618;10.764;2024-02-21T04:39:41;93799.88;;;3.26;100.00
57248;BME280;55809;46.618;10.764;2024-02-21T04:42:09;93801.19;;;3.20;100.00
57248;BME280;55809;46.618;10.764;2024-02-21T04:44:36;93811.81;;;3.08;100.00
57248;BME280;55809;46.618;10.764;2024-02-21T04:47:03;93809.84;;;3.17;100.00
57248;BME280;55809;46.618;10.764;2024-02-21T04:49:31;93818.00;;;2.99;100.00
57248;BME280;55809;46.618;10.764;2024-02-21T04:51:58;93757.91;;;2.69;100.00
57248;BME280;55809;46.618;10.764;2024-02-21T04:54:25;93799.91;;;3.05;100.00
57248;BME280;55809;46.618;10.764;2024-02-21T04:56:52;93798.50;;;3.08;100.00
57248;BME280;55809;46.618;10.764;2024-02-21T04:59:20;93792.69;;;2.93;100.00
57248;BME280;55809;46.618;10.764;2024-02-21T05:01:47;93789.34;;;2.96;100.00
57248;BME280;55809;46.618;10.764;2024-02-21T05:04:14;93752.72;;;2.72;100.00
57248;BME280;55809;46.618;10.764;2024-02-21T05:06:41;93777.22;;;2.87;100.00
57248;BME280;55809;46.618;10.764;2024-02-21T05:09:09;93799.56;;;2.94;100.00
57248;BME280;55809;46.618;10.764;2024-02-21T05:11:35;93789.25;;;3.05;100.00
57248;BME280;55809;46.618;10.764;2024-02-21T05:14:03;93783.91;;;3.05;100.00
57248;BME280;55809;46.618;10.764;2024-02-21T05:16:32;93781.09;;;3.35;100.00
57248;BME280;55809;46.618;10.764;2024-02-21T05:18:59;93783.19;;;3.17;100.00
57248;BME280;55809;46.618;10.764;2024-02-21T05:21:26;93786.94;;;3.03;100.00
57248;BME280;55809;46.618;10.764;2024-02-21T05:23:53;93791.34;;;2.99;100.00
57248;BME280;55809;46.618;10.764;2024-02-21T05:26:21;93783.19;;;2.84;100.00
57248;BME280;55809;46.618;10.764;2024-02-21T05:28:48;93785.44;;;2.61;100.00
57248;BME280;55809;46.618;10.764;2024-02-21T05:31:15;93783.69;;;2.65;100.00
57248;BME280;55809;46.618;10.764;2024-02-21T05:33:44;93787.16;;;2.77;100.00
57248;BME280;55809;46.618;10.764;2024-02-21T05:36:11;93791.44;;;2.91;100.00
57248;BME280;55809;46.618;10.764;2024-02-21T05:38:38;93790.56;;;2.99;100.00
57248;BME280;55809;46.618;10.764;2024-02-21T05:41:06;93792.56;;;3.02;100.00
57248;BME280;55809;46.618;10.764;2024-02-21T05:43:33;93787.81;;;3.08;100.00
57248;BME280;55809;46.618;10.764;2024-02-21T05:45:59;93788.56;;;2.96;100.00
57248;BME280;55809;46.618;10.764;2024-02-21T05:48:26;93775.34;;;2.99;100.00
57248;BME280;55809;46.618;10.764;2024-02-21T05:50:55;93786.00;;;2.99;100.00
57248;BME280;55809;46.618;10.764;2024-02-21T05:53:22;93792.22;;;2.91;100.00
57248;BME280;55809;46.618;10.764;2024-02-21T05:55:49;93795.34;;;2.93;100.00
57248;BME280;55809;46.618;10.764;2024-02-21T05:58:15;93771.06;;;2.86;100.00
57248;BME280;55809;46.618;10.764;2024-02-21T06:00:42;93790.53;;;2.87;100.00
57248;BME280;55809;46.618;10.764;2024-02-21T06:03:09;93796.19;;;2.85;100.00
57248;BME280;55809;46.618;10.764;2024-02-21T06:05:37;93681.25;;;2.20;100.00
57248;BME280;55809;46.618;10.764;2024-02-21T06:08:06;93802.53;;;2.93;100.00
57248;BME280;55809;46.618;10.764;2024-02-21T06:10:34;93806.44;;;2.95;100.00
57248;BME280;55809;46.618;10.764;2024-02-21T06:13:01;93809.41;;;2.81;100.00
57248;BME280;55809;46.618;10.764;2024-02-21T06:15:28;93804.09;;;2.61;100.00
57248;BME280;55809;46.618;10.764;2024-02-21T06:17:55;93806.94;;;2.55;100.00
57248;BME280;55809;46.618;10.764;2024-02-21T06:20:22;93782.84;;;2.52;100.00
57248;BME280;55809;46.618;10.764;2024-02-21T06:22:49;93798.56;;;2.66;100.00
57248;BME280;55809;46.618;10.764;2024-02-21T06:25:17;93785.69;;;2.68;100.00
57248;BME280;55809;46.618;10.764;2024-02-21T06:27:44;93786.81;;;2.79;100.00
57248;BME280;55809;46.618;10.764;2024-02-21T06:30:12;93792.28;;;2.82;100.00
57248;BME280;55809;46.618;10.764;2024-02-21T06:32:39;93795.53;;;2.88;100.00
57248;BME280;55809;46.618;10.764;2024-02-21T06:35:06;93803.47;;;2.76;100.00
57248;BME280;55809;46.618;10.764;2024-02-21T06:37:33;93814.00;;;2.72;100.00
57248;BME280;55809;46.618;10.764;2024-02-21T06:40:00;93814.00;;;2.72;100.00
57248;BME280;55809;46.618;10.764;2024-02-21T06:42:28;93810.44;;;2.68;100.00
57248;BME280;55809;46.618;10.764;2024-02-21T06:44:56;93809.91;;;2.75;100.00
57248;BME280;55809;46.618;10.764;2024-02-21T06:47:23;93812.28;;;2.55;100.00
57248;BME280;55809;46.618;10.764;2024-02-21T06:49:50;93782.47;;;2.41;100.00
57248;BME280;55809;46.618;10.764;2024-02-21T06:52:17;93817.03;;;2.71;100.00
57248;BME280;55809;46.618;10.764;2024-02-21T06:54:45;93812.72;;;2.78;100.00
57248;BME280;55809;46.618;10.764;2024-02-21T06:57:13;93818.81;;;2.79;100.00
57248;BME280;55809;46.618;10.764;2024-02-21T06:59:42;93777.75;;;2.59;100.00
57248;BME280;55809;46.618;10.764;2024-02-21T07:02:09;93822.31;;;2.92;100.00
57248;BME280;55809;46.618;10.764;2024-02-21T07:04:36;93820.13;;;2.94;100.00
57248;BME280;55809;46.618;10.764;2024-02-21T07:07:03;93828.00;;;3.23;100.00
57248;BME280;55809;46.618;10.764;2024-02-21T07:09:30;93829.28;;;3.75;100.00
57248;BME280;55809;46.618;10.764;2024-02-21T07:11:57;93829.31;;;4.12;100.00
57248;BME280;55809;46.618;10.764;2024-02-21T07:14:25;93824.47;;;4.42;100.00
57248;BME280;55809;46.618;10.764;2024-02-21T07:16:53;93821.84;;;4.70;100.00
57248;BME280;55809;46.618;10.764;2024-02-21T07:19:22;93824.19;;;5.00;100.00
57248;BME280;55809;46.618;10.764;2024-02-21T07:21:49;93824.88;;;5.25;100.00
57248;BME280;55809;46.618;10.764;2024-02-21T07:24:16;93822.50;;;5.51;100.00
57248;BME280;55809;46.618;10.764;2024-02-21T07:26:43;93691.13;;;4.81;100.00
57248;BME280;55809;46.618;10.764;2024-02-21T07:29:10;93819.31;;;5.77;100.00
57248;BME280;55809;46.618;10.764;2024-02-21T07:31:41;93813.53;;;6.07;100.00
57248;BME280;55809;46.618;10.764;2024-02-21T07:34:09;93810.31;;;6.33;100.00
57248;BME280;55809;46.618;10.764;2024-02-21T07:36:36;93811.97;;;6.57;100.00
57248;BME280;55809;46.618;10.764;2024-02-21T07:39:04;93806.84;;;6.87;100.00
57248;BME280;55809;46.618;10.764;2024-02-21T07:41:31;93809.50;;;7.26;100.00
57248;BME280;55809;46.618;10.764;2024-02-21T07:44:00;93800.84;;;7.56;100.00
57248;BME280;55809;46.618;10.764;2024-02-21T07:46:27;93796.59;;;7.78;100.00
57248;BME280;55809;46.618;10.764;2024-02-21T07:48:54;93787.41;;;7.79;100.00
57248;BME280;55809;46.618;10.764;2024-02-21T07:51:22;93793.84;;;7.97;100.00
57248;BME280;55809;46.618;10.764;2024-02-21T07:53:54;93798.34;;;8.16;100.00
57248;BME280;55809;46.618;10.764;2024-02-21T07:56:21;93715.94;;;7.74;100.00
57248;BME280;55809;46.618;10.764;2024-02-21T07:58:48;93791.28;;;8.31;100.00
57248;BME280;55809;46.618;10.764;2024-02-21T08:01:18;93780.69;;;8.41;100.00
57248;BME280;55809;46.618;10.764;2024-02-21T08:03:46;93787.56;;;8.65;100.00
57248;BME280;55809;46.618;10.764;2024-02-21T08:06:13;93786.13;;;8.75;100.00
57248;BME280;55809;46.618;10.764;2024-02-21T08:08:42;93781.59;;;8.49;100.00
57248;BME280;55809;46.618;10.764;2024-02-21T08:11:09;93779.44;;;8.62;100.00
57248;BME280;55809;46.618;10.764;2024-02-21T08:13:36;93692.72;;;8.15;100.00
57248;BME280;55809;46.618;10.764;2024-02-21T08:16:03;93783.34;;;8.98;100.00
57248;BME280;55809;46.618;10.764;2024-02-21T08:18:31;93784.06;;;9.25;100.00
57248;BME280;55809;46.618;10.764;2024-02-21T08:21:01;93769.97;;;9.43;100.00
57248;BME280;55809;46.618;10.764;2024-02-21T08:23:29;93689.81;;;8.91;100.00
57248;BME280;55809;46.618;10.764;2024-02-21T08:25:58;93768.66;;;9.67;100.00
57248;BME280;55809;46.618;10.764;2024-02-21T08:28:25;93768.72;;;9.33;100.00
57248;BME280;55809;46.618;10.764;2024-02-21T08:30:52;93757.44;;;8.86;100.00
57248;BME280;55809;46.618;10.764;2024-02-21T08:33:19;93769.09;;;8.64;100.00
57248;BME280;55809;46.618;10.764;2024-02-21T08:35:50;93766.34;;;8.60;100.00
57248;BME280;55809;46.618;10.764;2024-02-21T08:38:17;93707.81;;;7.97;100.00
57248;BME280;55809;46.618;10.764;2024-02-21T08:40:44;93762.22;;;8.13;100.00
57248;BME280;55809;46.618;10.764;2024-02-21T08:43:12;93753.16;;;7.98;100.00
57248;BME280;55809;46.618;10.764;2024-02-21T08:45:39;93752.41;;;7.75;100.00
57248;BME280;55809;46.618;10.764;2024-02-21T08:48:07;93763.09;;;7.48;100.00
57248;BME280;55809;46.618;10.764;2024-02-21T08:50:34;93760.66;;;7.40;100.00
57248;BME280;55809;46.618;10.764;2024-02-21T08:53:02;93758.09;;;7.47;100.00
57248;BME280;55809;46.618;10.764;2024-02-21T08:55:29;93749.00;;;7.32;100.00
57248;BME280;55809;46.618;10.764;2024-02-21T08:57:56;93752.16;;;7.15;100.00
57248;BME280;55809;46.618;10.764;2024-02-21T09:00:24;93745.41;;;7.01;100.00
57248;BME280;55809;46.618;10.764;2024-02-21T09:02:52;93754.88;;;6.95;100.00
57248;BME280;55809;46.618;10.764;2024-02-21T09:05:21;93751.25;;;6.88;100.00
57248;BME280;55809;46.618;10.764;2024-02-21T09:07:48;93743.00;;;6.96;100.00
57248;BME280;55809;46.618;10.764;2024-02-21T09:10:15;93742.78;;;6.86;100.00
57248;BME280;55809;46.618;10.764;2024-02-21T09:12:42;93721.47;;;6.73;100.00
57248;BME280;55809;46.618;10.764;2024-02-21T09:15:10;93738.91;;;7.02;100.00
57248;BME280;55809;46.618;10.764;2024-02-21T09:17:38;93740.03;;;7.01;100.00
57248;BME280;55809;46.618;10.764;2024-02-21T09:20:07;93733.09;;;7.00;100.00
57248;BME280;55809;46.618;10.764;2024-02-21T09:22:35;93730.13;;;7.05;100.00
57248;BME280;55809;46.618;10.764;2024-02-21T09:25:04;93727.81;;;7.27;100.00
57248;BME280;55809;46.618;10.764;2024-02-21T09:27:32;93716.22;;;7.69;100.00
57248;BME280;55809;46.618;10.764;2024-02-21T09:29:59;93710.84;;;8.22;100.00
57248;BME280;55809;46.618;10.764;2024-02-21T09:32:27;93711.91;;;8.40;100.00
57248;BME280;55809;46.618;10.764;2024-02-21T09:34:55;93704.84;;;8.32;100.00
57248;BME280;55809;46.618;10.764;2024-02-21T09:37:22;93700.25;;;8.63;100.00
57248;BME280;55809;46.618;10.764;2024-02-21T09:39:49;93702.78;;;8.82;100.00
57248;BME280;55809;46.618;10.764;2024-02-21T09:42:20;93699.88;;;9.35;100.00
57248;BME280;55809;46.618;10.764;2024-02-21T09:44:48;93684.44;;;9.80;100.00
57248;BME280;55809;46.618;10.764;2024-02-21T09:47:20;93690.69;;;9.92;100.00
57248;BME280;55809;46.618;10.764;2024-02-21T09:49:49;93635.50;;;9.75;100.00
57248;BME280;55809;46.618;10.764;2024-02-21T09:52:19;93685.44;;;10.17;100.00
57248;BME280;55809;46.618;10.764;2024-02-21T09:54:47;93677.28;;;10.09;100.00
57248;BME280;55809;46.618;10.764;2024-02-21T09:57:15;93630.22;;;10.00;100.00
57248;BME280;55809;46.618;10.764;2024-02-21T09:59:43;93685.28;;;10.57;100.00
57248;BME280;55809;46.618;10.764;2024-02-21T10:02:11;93689.19;;;10.67;100.00
57248;BME280;55809;46.618;10.764;2024-02-21T10:04:39;93692.69;;;10.75;100.00
57248;BME280;55809;46.618;10.764;2024-02-21T10:07:07;93689.25;;;10.85;100.00
57248;BME280;55809;46.618;10.764;2024-02-21T10:09:36;93684.34;;;11.30;100.00
57248;BME280;55809;46.618;10.764;2024-02-21T10:12:09;93685.84;;;11.10;100.00
57248;BME280;55809;46.618;10.764;2024-02-21T10:14:36;93684.69;;;11.21;100.00
57248;BME280;55809;46.618;10.764;2024-02-21T10:17:04;93632.41;;;10.49;100.00
57248;BME280;55809;46.618;10.764;2024-02-21T10:19:35;93544.00;;;9.37;100.00
57248;BME280;55809;46.618;10.764;2024-02-21T10:22:05;93687.56;;;9.86;100.00
57248;BME280;55809;46.618;10.764;2024-02-21T10:24:33;93597.94;;;9.41;100.00
57248;BME280;55809;46.618;10.764;2024-02-21T10:27:03;93633.66;;;9.90;100.00
57248;BME280;55809;46.618;10.764;2024-02-21T10:29:33;93688.44;;;10.70;100.00
57248;BME280;55809;46.618;10.764;2024-02-21T10:32:07;93688.88;;;10.83;100.00
57248;BME280;55809;46.618;10.764;2024-02-21T10:34:36;93689.66;;;10.94;100.00
57248;BME280;55809;46.618;10.764;2024-02-21T10:37:04;93686.19;;;10.94;100.00
57248;BME280;55809;46.618;10.764;2024-02-21T10:39:32;93674.22;;;10.98;100.00
57248;BME280;55809;46.618;10.764;2024-02-21T10:42:00;93663.84;;;11.08;100.00
57248;BME280;55809;46.618;10.764;2024-02-21T10:44:32;93609.78;;;10.90;100.00
57248;BME280;55809;46.618;10.764;2024-02-21T10:46:59;93655.75;;;11.22;100.00
57248;BME280;55809;46.618;10.764;2024-02-21T10:49:30;93646.13;;;11.39;100.00
57248;BME280;55809;46.618;10.764;2024-02-21T10:52:06;93646.13;;;11.49;100.00
57248;BME280;55809;46.618;10.764;2024-02-21T10:54:43;93634.56;;;11.45;100.00
57248;BME280;55809;46.618;10.764;2024-02-21T10:57:12;93629.13;;;11.31;100.00
57248;BME280;55809;46.618;10.764;2024-02-21T10:59:41;93633.34;;;11.00;100.00
57248;BME280;55809;46.618;10.764;2024-02-21T11:02:09;93634.91;;;11.15;100.00
57248;BME280;55809;46.618;10.764;2024-02-21T11:04:37;93634.94;;;11.22;100.00
57248;BME280;55809;46.618;10.764;2024-02-21T11:07:05;93629.09;;;10.99;100.00
57248;BME280;55809;46.618;10.764;2024-02-21T11:09:33;93561.81;;;10.33;100.00
57248;BME280;55809;46.618;10.764;2024-02-21T11:12:02;93615.47;;;10.56;100.00
57248;BME280;55809;46.618;10.764;2024-02-21T11:14:29;93620.91;;;10.60;100.00
57248;BME280;55809;46.618;10.764;2024-02-21T11:17:02;93604.72;;;10.60;100.00
57248;BME280;55809;46.618;10.764;2024-02-21T11:19:30;93606.16;;;10.36;100.00
57248;BME280;55809;46.618;10.764;2024-02-21T11:21:57;93605.84;;;10.62;100.00
57248;BME280;55809;46.618;10.764;2024-02-21T11:24:28;93604.34;;;10.79;100.00
57248;BME280;55809;46.618;10.764;2024-02-21T11:26:56;93597.84;;;10.98;100.00
57248;BME280;55809;46.618;10.764;2024-02-21T11:29:23;93581.25;;;11.28;100.00
57248;BME280;55809;46.618;10.764;2024-02-21T11:31:51;93560.41;;;11.36;100.00
57248;BME280;55809;46.618;10.764;2024-02-21T11:34:20;93566.56;;;11.50;100.00
57248;BME280;55809;46.618;10.764;2024-02-21T11:36:48;93565.41;;;11.62;100.00
57248;BME280;55809;46.618;10.764;2024-02-21T11:39:22;93551.06;;;11.83;100.00
57248;BME280;55809;46.618;10.764;2024-02-21T11:42:03;93529.06;;;11.67;100.00
57248;BME280;55809;46.618;10.764;2024-02-21T11:44:31;93539.13;;;11.66;100.00
57248;BME280;55809;46.618;10.764;2024-02-21T11:46:58;93535.28;;;11.57;100.00
57248;BME280;55809;46.618;10.764;2024-02-21T11:49:28;93532.59;;;11.42;100.00
57248;BME280;55809;46.618;10.764;2024-02-21T11:51:59;93515.97;;;11.55;100.00
57248;BME280;55809;46.618;10.764;2024-02-21T11:54:29;93519.47;;;11.41;100.00
57248;BME280;55809;46.618;10.764;2024-02-21T11:56:56;93508.28;;;11.28;100.00
57248;BME280;55809;46.618;10.764;2024-02-21T11:59:23;93453.53;;;10.92;100.00
57248;BME280;55809;46.618;10.764;2024-02-21T12:01:50;93506.75;;;11.31;100.00
57248;BME280;55809;46.618;10.764;2024-02-21T12:04:18;93502.09;;;11.31;100.00
57248;BME280;55809;46.618;10.764;2024-02-21T12:06:47;93496.31;;;11.36;100.00
57248;BME280;55809;46.618;10.764;2024-02-21T12:09:14;93398.38;;;10.75;100.00
57248;BME280;55809;46.618;10.764;2024-02-21T12:11:42;93475.50;;;11.30;100.00
57248;BME280;55809;46.618;10.764;2024-02-21T12:14:10;93476.66;;;11.32;100.00
57248;BME280;55809;46.618;10.764;2024-02-21T12:16:37;93477.03;;;11.31;100.00
57248;BME280;55809;46.618;10.764;2024-02-21T12:19:04;93469.28;;;11.36;100.00
57248;BME280;55809;46.618;10.764;2024-02-21T12:21:32;93352.91;;;10.52;100.00
57248;BME280;55809;46.618;10.764;2024-02-21T12:24:13;93468.97;;;11.09;100.00
57248;BME280;55809;46.618;10.764;2024-02-21T12:26:40;93463.94;;;11.04;100.00
57248;BME280;55809;46.618;10.764;2024-02-21T12:29:10;93460.47;;;10.96;100.00
57248;BME280;55809;46.618;10.764;2024-02-21T12:31:37;93461.63;;;10.95;100.00
57248;BME280;55809;46.618;10.764;2024-02-21T12:34:05;93456.22;;;10.92;100.00
57248;BME280;55809;46.618;10.764;2024-02-21T12:36:32;93429.63;;;10.79;100.00
57248;BME280;55809;46.618;10.764;2024-02-21T12:38:59;93452.75;;;10.91;100.00
57248;BME280;55809;46.618;10.764;2024-02-21T12:41:30;93454.69;;;10.98;100.00
57248;BME280;55809;46.618;10.764;2024-02-21T12:43:58;93452.75;;;11.09;100.00
57248;BME280;55809;46.618;10.764;2024-02-21T12:46:25;93432.28;;;11.22;100.00
57248;BME280;55809;46.618;10.764;2024-02-21T12:48:52;93432.25;;;11.26;100.00
57248;BME280;55809;46.618;10.764;2024-02-21T12:51:19;93429.94;;;11.35;100.00